createdAt,value
2019-02-22T00:03:24.053Z,7.50
2019-02-22T00:05:58.651Z,7.50
2019-02-22T00:08:29.214Z,7.50
2019-02-22T00:11:21.849Z,7.60
2019-02-22T00:13:52.246Z,7.50
2019-02-22T00:16:23.451Z,7.50
2019-02-22T00:18:53.836Z,7.50
2019-02-22T00:21:24.289Z,7.50
2019-02-22T00:24:01.892Z,7.50
2019-02-22T00:26:51.727Z,7.40
2019-02-22T00:29:22.928Z,7.50
2019-02-22T00:31:53.257Z,7.50
2019-02-22T00:34:23.672Z,7.50
2019-02-22T00:36:54.061Z,7.50
2019-02-22T00:39:24.450Z,7.40
2019-02-22T00:41:54.828Z,7.50
2019-02-22T00:44:25.295Z,7.50
2019-02-22T00:46:55.679Z,7.50
2019-02-22T00:49:26.378Z,7.30
2019-02-22T00:51:57.529Z,7.10
2019-02-22T00:54:28.866Z,7.10
2019-02-22T00:56:59.298Z,7.10
2019-02-22T00:59:29.688Z,7.30
2019-02-22T01:02:21.561Z,7.30
2019-02-22T01:04:52.817Z,7.30
2019-02-22T01:07:23.980Z,7.30
2019-02-22T01:09:54.363Z,7.30
2019-02-22T01:12:24.993Z,7.20
2019-02-22T01:14:55.319Z,7.20
2019-02-22T01:17:25.725Z,7.30
2019-02-22T01:19:56.210Z,7.20
2019-02-22T01:22:26.610Z,7.10
2019-02-22T01:24:57.057Z,7.10
2019-02-22T01:27:28.397Z,7.10
2019-02-22T01:29:59.581Z,7.20
2019-02-22T01:32:29.984Z,7.10
2019-02-22T01:35:01.058Z,7.30
2019-02-22T01:37:38.807Z,7.30
2019-02-22T01:40:09.143Z,7.40
2019-02-22T01:42:40.472Z,7.00
2019-02-22T01:45:10.929Z,7.00
2019-02-22T01:47:41.368Z,7.10
2019-02-22T01:50:11.696Z,7.10
2019-02-22T01:52:42.080Z,7.10
2019-02-22T01:55:12.646Z,7.00
2019-02-22T01:57:44.173Z,6.90
2019-02-22T02:00:15.273Z,7.00
2019-02-22T02:03:05.108Z,7.00
2019-02-22T02:05:36.260Z,7.00
2019-02-22T02:08:06.755Z,7.00
2019-02-22T02:10:37.329Z,6.90
2019-02-22T02:13:07.712Z,6.80
2019-02-22T02:15:38.110Z,6.70
2019-02-22T02:18:27.872Z,6.70
2019-02-22T02:20:58.311Z,6.70
2019-02-22T02:23:31.700Z,6.60
2019-02-22T02:26:02.249Z,6.60
2019-02-22T02:28:33.594Z,6.60
2019-02-22T02:31:25.401Z,6.60
2019-02-22T02:33:55.784Z,6.60
2019-02-22T02:36:26.233Z,6.70
2019-02-22T02:38:57.374Z,6.80
2019-02-22T02:41:28.529Z,6.80
2019-02-22T02:43:59.249Z,6.80
2019-02-22T02:46:30.458Z,6.80
2019-02-22T02:49:05.956Z,6.80
2019-02-22T02:51:36.342Z,6.80
2019-02-22T02:54:06.836Z,6.70
2019-02-22T02:56:38.184Z,6.80
2019-02-22T02:59:08.517Z,6.70
2019-02-22T03:01:45.155Z,6.60
2019-02-22T03:04:35.883Z,6.60
2019-02-22T03:07:08.729Z,6.60
2019-02-22T03:09:39.897Z,6.70
2019-02-22T03:12:10.764Z,6.70
2019-02-22T03:15:00.326Z,6.70
2019-02-22T03:17:30.761Z,6.70
2019-02-22T03:20:01.083Z,6.70
2019-02-22T03:22:31.515Z,6.60
2019-02-22T03:25:01.905Z,6.60
2019-02-22T03:27:33.031Z,6.60
2019-02-22T03:30:03.513Z,6.60
2019-02-22T03:32:34.635Z,6.50
2019-02-22T03:35:05.026Z,6.50
2019-02-22T03:37:35.681Z,6.50
2019-02-22T03:40:06.071Z,6.50
2019-02-22T03:42:36.460Z,6.40
2019-02-22T03:45:07.102Z,6.40
2019-02-22T03:47:39.585Z,6.50
2019-02-22T03:50:09.974Z,6.50
2019-02-22T03:52:43.199Z,6.40
2019-02-22T03:55:14.000Z,6.50
2019-02-22T03:57:45.167Z,6.50
2019-02-22T04:00:15.545Z,6.50
2019-02-22T04:02:46.005Z,6.50
2019-02-22T04:05:16.394Z,6.40
2019-02-22T04:07:46.788Z,6.40
2019-02-22T04:10:21.315Z,6.50
2019-02-22T04:15:53.024Z,6.50
2019-02-22T04:18:23.400Z,6.60
2019-02-22T04:20:53.776Z,6.70
2019-02-22T04:23:24.220Z,6.70
2019-02-22T04:25:55.384Z,6.60
2019-02-22T04:28:26.893Z,6.50
2019-02-22T04:30:58.303Z,6.50
2019-02-22T04:33:28.746Z,6.50
2019-02-22T04:36:05.434Z,6.40
2019-02-22T04:38:57.218Z,6.40
2019-02-22T04:41:27.612Z,6.40
2019-02-22T04:43:58.059Z,6.40
2019-02-22T04:46:29.216Z,6.40
2019-02-22T04:49:00.614Z,6.40
2019-02-22T04:51:31.005Z,6.40
2019-02-22T04:54:01.430Z,6.20
2019-02-22T04:56:31.922Z,6.30
2019-02-22T04:59:02.259Z,6.30
2019-02-22T05:01:33.425Z,6.30
2019-02-22T05:04:04.626Z,6.30
2019-02-22T05:06:35.008Z,6.30
2019-02-22T05:09:05.410Z,6.30
2019-02-22T05:11:36.627Z,6.30
2019-02-22T05:14:07.082Z,6.30
2019-02-22T05:16:38.238Z,6.20
2019-02-22T05:19:08.609Z,6.20
2019-02-22T05:21:39.011Z,6.20
2019-02-22T05:24:09.403Z,6.20
2019-02-22T05:26:40.605Z,6.10
2019-02-22T05:29:33.162Z,6.20
2019-02-22T05:32:03.541Z,6.10
2019-02-22T05:34:33.866Z,6.10
2019-02-22T05:37:04.260Z,6.20
2019-02-22T05:39:34.696Z,6.10
2019-02-22T05:42:05.864Z,6.10
2019-02-22T05:44:36.258Z,6.10
2019-02-22T05:47:06.637Z,6.10
2019-02-22T05:49:38.130Z,6.10
2019-02-22T05:52:08.624Z,6.00
2019-02-22T05:54:39.208Z,6.00
2019-02-22T05:57:09.702Z,6.00
2019-02-22T05:59:45.192Z,6.10
2019-02-22T06:02:15.551Z,6.00
2019-02-22T06:04:45.945Z,5.90
2019-02-22T06:07:16.265Z,5.90
2019-02-22T06:09:47.660Z,5.80
2019-02-22T06:12:34.137Z,5.80
2019-02-22T06:14:54.547Z,6.00
2019-02-22T06:17:24.991Z,6.00
2019-02-22T06:19:55.310Z,5.90
2019-02-22T06:22:33.320Z,6.00
2019-02-22T06:25:03.714Z,6.00
2019-02-22T06:27:38.119Z,6.10
2019-02-22T06:30:09.528Z,6.00
2019-02-22T06:32:42.165Z,6.00
2019-02-22T06:35:10.267Z,5.90
2019-02-22T06:37:40.726Z,6.00
2019-02-22T06:40:11.293Z,6.10
2019-02-22T06:45:12.879Z,6.20
2019-02-22T06:47:43.340Z,6.20
2019-02-22T06:50:13.727Z,6.80
2019-02-22T06:52:44.159Z,6.50
2019-02-22T06:55:14.546Z,6.40
2019-02-22T06:57:44.925Z,6.30
2019-02-22T07:00:17.678Z,6.20
2019-02-22T07:02:48.821Z,6.20
2019-02-22T07:05:19.982Z,6.20
2019-02-22T07:07:50.796Z,6.20
2019-02-22T07:10:21.966Z,6.10
2019-02-22T07:12:56.685Z,6.10
2019-02-22T07:15:22.823Z,6.20
2019-02-22T07:17:53.222Z,6.00
2019-02-22T07:20:23.656Z,6.10
2019-02-22T07:22:54.811Z,6.10
2019-02-22T07:25:25.194Z,6.10
2019-02-22T07:27:55.623Z,6.20
2019-02-22T07:30:26.011Z,6.20
2019-02-22T07:32:56.425Z,6.20
2019-02-22T07:35:27.441Z,6.20
2019-02-22T07:38:00.051Z,6.20
2019-02-22T07:40:30.444Z,6.20
2019-02-22T07:43:07.918Z,6.20
2019-02-22T07:45:32.166Z,6.20
2019-02-22T07:48:04.705Z,6.20
2019-02-22T07:50:40.319Z,6.30
2019-02-22T07:53:11.271Z,6.30
2019-02-22T07:55:41.821Z,6.10
2019-02-22T07:58:12.390Z,6.10
2019-02-22T08:00:43.001Z,6.30
2019-02-22T08:03:13.328Z,6.40
2019-02-22T08:09:03.659Z,6.50
2019-02-22T08:11:33.981Z,6.40
2019-02-22T08:14:07.900Z,6.40
2019-02-22T08:16:37.242Z,6.50
2019-02-22T08:19:07.626Z,6.50
2019-02-22T08:21:42.098Z,6.50
2019-02-22T08:24:12.496Z,6.50
2019-02-22T08:29:48.538Z,6.70
2019-02-22T08:32:19.116Z,7.10
2019-02-22T08:34:49.790Z,7.00
2019-02-22T08:37:21.050Z,6.70
2019-02-22T08:39:58.561Z,6.70
2019-02-22T08:42:22.017Z,6.70
2019-02-22T08:44:52.467Z,6.70
2019-02-22T08:47:24.846Z,6.80
2019-02-22T08:49:55.359Z,6.90
2019-02-22T08:52:29.839Z,6.90
2019-02-22T08:55:00.444Z,7.00
2019-02-22T08:57:30.889Z,7.10
2019-02-22T09:00:03.269Z,7.20
2019-02-22T09:02:34.688Z,7.20
2019-02-22T09:05:09.183Z,7.20
2019-02-22T09:07:43.662Z,7.40
2019-02-22T09:10:14.905Z,7.70
2019-02-22T09:12:46.060Z,7.80
2019-02-22T09:15:17.472Z,7.90
2019-02-22T09:17:50.077Z,7.90
2019-02-22T09:20:22.628Z,8.00
2019-02-22T09:22:53.005Z,8.00
2019-02-22T09:25:24.168Z,8.00
2019-02-22T09:27:54.613Z,8.10
2019-02-22T09:30:29.141Z,8.10
2019-02-22T09:33:20.097Z,8.20
2019-02-22T09:35:51.319Z,8.40
2019-02-22T09:38:21.752Z,8.40
2019-02-22T09:40:52.146Z,8.40
2019-02-22T09:43:22.525Z,8.40
2019-02-22T09:45:53.994Z,8.60
2019-02-22T09:48:24.564Z,8.60
2019-02-22T09:50:54.942Z,8.60
2019-02-22T09:53:25.977Z,8.60
2019-02-22T09:55:56.372Z,8.70
2019-02-22T09:58:26.943Z,8.70
2019-02-22T10:00:57.399Z,8.70
2019-02-22T10:03:47.034Z,9.00
2019-02-22T10:06:17.323Z,9.10
2019-02-22T10:08:47.899Z,9.10
2019-02-22T10:11:19.056Z,9.10
2019-02-22T10:13:49.427Z,9.10
2019-02-22T10:16:19.758Z,9.30
2019-02-22T10:18:50.146Z,9.30
2019-02-22T10:21:20.760Z,9.20
2019-02-22T10:23:51.144Z,9.10
2019-02-22T10:26:21.639Z,9.30
2019-02-22T10:28:52.049Z,9.30
2019-02-22T10:31:22.750Z,9.40
2019-02-22T10:33:54.089Z,9.70
2019-02-22T10:36:24.531Z,9.70
2019-02-22T10:38:55.627Z,9.90
2019-02-22T10:41:25.957Z,9.90
2019-02-22T10:44:18.015Z,10.00
2019-02-22T10:46:45.361Z,10.10
2019-02-22T10:49:15.754Z,10.10
2019-02-22T10:51:46.208Z,10.20
2019-02-22T10:54:16.662Z,10.20
2019-02-22T10:56:47.051Z,10.20
2019-02-22T10:59:19.525Z,10.30
2019-02-22T11:02:08.246Z,10.30
2019-02-22T11:04:39.518Z,10.30
2019-02-22T11:07:10.872Z,10.30
2019-02-22T11:09:41.268Z,10.40
2019-02-22T11:12:11.715Z,10.40
2019-02-22T11:14:42.107Z,10.50
2019-02-22T11:17:13.265Z,10.60
2019-02-22T11:19:44.407Z,10.60
2019-02-22T11:22:15.557Z,10.80
2019-02-22T11:24:45.938Z,10.80
2019-02-22T11:27:16.386Z,10.90
2019-02-22T11:29:49.184Z,10.90
2019-02-22T11:32:17.924Z,11.10
2019-02-22T11:35:09.485Z,11.10
2019-02-22T11:37:40.321Z,11.10
2019-02-22T11:40:10.974Z,11.10
2019-02-22T11:42:41.375Z,11.10
2019-02-22T11:45:11.895Z,11.20
2019-02-22T11:47:42.280Z,11.40
2019-02-22T11:50:12.672Z,11.30
2019-02-22T11:52:43.446Z,11.30
2019-02-22T11:55:13.778Z,11.40
2019-02-22T11:57:50.631Z,11.40
2019-02-22T12:00:21.018Z,11.40
2019-02-22T12:02:51.365Z,11.30
2019-02-22T12:05:22.586Z,11.30
2019-02-22T12:07:52.926Z,11.30
2019-02-22T12:10:23.612Z,11.40
2019-02-22T12:12:58.099Z,11.40
2019-02-22T12:15:31.406Z,11.50
2019-02-22T12:17:59.899Z,11.50
2019-02-22T12:20:30.359Z,11.50
2019-02-22T12:23:00.751Z,11.60
2019-02-22T12:25:31.209Z,11.70
2019-02-22T12:28:03.698Z,11.70
2019-02-22T12:30:34.035Z,11.80
2019-02-22T12:33:04.385Z,11.90
2019-02-22T12:35:35.596Z,11.80
2019-02-22T12:38:05.928Z,11.70
2019-02-22T12:40:36.305Z,12.00
2019-02-22T12:45:50.244Z,11.90
2019-02-22T12:48:21.402Z,12.00
2019-02-22T12:50:51.803Z,11.90
2019-02-22T12:53:22.423Z,12.10
2019-02-22T12:55:52.812Z,12.20
2019-02-22T12:58:30.827Z,12.20
2019-02-22T13:01:02.705Z,12.30
2019-02-22T13:03:33.106Z,12.20
2019-02-22T13:06:22.935Z,12.10
2019-02-22T13:08:54.038Z,12.40
2019-02-22T13:11:25.672Z,12.40
2019-02-22T13:13:56.076Z,12.30
2019-02-22T13:16:27.235Z,12.50
2019-02-22T13:18:57.619Z,12.50
2019-02-22T13:21:28.430Z,12.70
2019-02-22T13:23:58.807Z,12.70
2019-02-22T13:26:29.969Z,12.50
2019-02-22T13:29:00.414Z,12.40
2019-02-22T13:31:30.789Z,12.60
2019-02-22T13:34:01.379Z,12.50
2019-02-22T13:36:39.149Z,12.50
2019-02-22T13:39:10.748Z,12.80
2019-02-22T13:41:41.206Z,12.90
2019-02-22T13:44:12.362Z,12.70
2019-02-22T13:46:43.507Z,12.50
2019-02-22T13:49:14.661Z,12.40
2019-02-22T13:51:45.060Z,12.40
2019-02-22T13:54:15.433Z,12.40
2019-02-22T13:56:46.017Z,12.50
2019-02-22T13:59:16.673Z,12.50
2019-02-22T14:01:47.822Z,12.80
2019-02-22T14:04:18.455Z,12.80
2019-02-22T14:06:49.080Z,12.90
2019-02-22T14:09:20.642Z,12.80
2019-02-22T14:11:51.989Z,12.70
2019-02-22T14:14:24.173Z,12.70
2019-02-22T14:16:54.631Z,12.70
2019-02-22T14:19:44.398Z,12.50
2019-02-22T14:22:19.962Z,12.60
2019-02-22T14:24:53.423Z,12.70
2019-02-22T14:27:23.865Z,12.80
2019-02-22T14:29:55.292Z,12.70
2019-02-22T14:32:26.451Z,13.10
2019-02-22T14:34:56.977Z,13.20
2019-02-22T14:37:27.523Z,13.00
2019-02-22T14:40:03.343Z,12.70
2019-02-22T14:42:34.571Z,12.70
2019-02-22T14:45:04.947Z,12.80
2019-02-22T14:47:35.342Z,12.70
2019-02-22T14:50:12.164Z,12.60
2019-02-22T14:52:48.711Z,12.60
2019-02-22T14:55:19.330Z,12.70
2019-02-22T14:57:49.726Z,12.60
2019-02-22T15:00:23.083Z,12.70
2019-02-22T15:02:56.592Z,13.00
2019-02-22T15:05:34.296Z,12.80
2019-02-22T15:08:05.770Z,12.90
2019-02-22T15:10:36.156Z,12.90
2019-02-22T15:13:12.702Z,12.90
2019-02-22T15:15:40.271Z,12.80
2019-02-22T15:18:10.663Z,12.80
2019-02-22T15:20:41.231Z,12.60
2019-02-22T15:23:11.689Z,12.70
2019-02-22T15:26:02.476Z,12.60
2019-02-22T15:28:34.203Z,12.80
2019-02-22T15:31:05.370Z,12.90
2019-02-22T15:33:37.866Z,12.90
2019-02-22T15:36:27.910Z,12.80
2019-02-22T15:38:59.290Z,13.00
2019-02-22T15:41:29.868Z,13.00
2019-02-22T15:44:00.406Z,12.90
2019-02-22T15:46:30.846Z,13.00
2019-02-22T15:49:01.995Z,13.00
2019-02-22T15:51:33.339Z,12.70
2019-02-22T15:54:04.537Z,12.80
2019-02-22T15:56:37.169Z,12.80
2019-02-22T15:59:08.561Z,12.90
2019-02-22T16:01:40.067Z,12.80
2019-02-22T16:04:11.279Z,12.80
2019-02-22T16:06:41.676Z,12.80
2019-02-22T16:09:14.356Z,12.90
2019-02-22T16:11:44.744Z,12.80
2019-02-22T16:14:15.933Z,12.70
2019-02-22T16:16:52.451Z,12.70
2019-02-22T16:19:23.752Z,12.80
2019-02-22T16:22:00.468Z,12.80
2019-02-22T16:24:30.931Z,12.70
2019-02-22T16:27:04.389Z,12.80
2019-02-22T16:29:35.009Z,12.60
2019-02-22T16:32:05.349Z,12.70
2019-02-22T16:34:43.543Z,12.70
2019-02-22T16:37:06.627Z,12.80
2019-02-22T16:39:37.972Z,12.70
2019-02-22T16:42:08.558Z,12.70
2019-02-22T16:44:39.180Z,12.70
2019-02-22T16:47:09.525Z,12.60
2019-02-22T16:49:40.107Z,12.60
2019-02-22T16:52:11.363Z,12.50
2019-02-22T16:54:41.890Z,12.50
2019-02-22T16:59:54.228Z,12.40
2019-02-22T17:02:24.624Z,12.20
2019-02-22T17:04:55.267Z,12.20
2019-02-22T17:07:26.724Z,12.10
2019-02-22T17:09:57.122Z,12.10
2019-02-22T17:12:27.453Z,12.00
2019-02-22T17:14:58.211Z,12.00
2019-02-22T17:17:28.603Z,11.90
2019-02-22T17:19:59.045Z,11.90
2019-02-22T17:22:30.413Z,11.80
2019-02-22T17:25:01.568Z,11.70
2019-02-22T17:27:32.359Z,11.70
2019-02-22T17:30:04.540Z,11.70
2019-02-22T17:32:34.872Z,11.60
2019-02-22T17:35:06.221Z,11.60
2019-02-22T17:37:37.374Z,11.60
2019-02-22T17:40:13.280Z,11.60
2019-02-22T17:43:04.349Z,11.50
2019-02-22T17:45:35.181Z,11.50
2019-02-22T17:48:06.639Z,11.40
2019-02-22T17:50:37.375Z,11.40
2019-02-22T17:53:08.463Z,11.30
2019-02-22T17:55:39.149Z,11.30
2019-02-22T17:58:09.598Z,11.30
2019-02-22T18:00:39.978Z,11.30
2019-02-22T18:03:10.362Z,11.20
2019-02-22T18:05:45.220Z,11.20
2019-02-22T18:08:15.898Z,11.20
2019-02-22T18:10:46.563Z,11.10
2019-02-22T18:13:36.323Z,11.10
2019-02-22T18:16:07.041Z,11.10
2019-02-22T18:18:38.390Z,11.10
2019-02-22T18:21:09.536Z,11.00
2019-02-22T18:23:39.931Z,11.00
2019-02-22T18:26:10.594Z,11.00
2019-02-22T18:28:41.056Z,11.00
2019-02-22T18:31:18.754Z,11.00
2019-02-22T18:34:08.605Z,11.00
2019-02-22T18:36:39.339Z,10.90
2019-02-22T18:39:10.502Z,11.00
2019-02-22T18:41:40.906Z,11.00
2019-02-22T18:44:12.359Z,11.00
2019-02-22T18:46:43.706Z,11.00
2019-02-22T18:49:15.331Z,11.00
2019-02-22T18:51:46.417Z,11.00
2019-02-22T18:54:17.048Z,11.00
2019-02-22T18:56:47.487Z,11.00
2019-02-22T18:59:17.877Z,11.00
2019-02-22T19:01:49.037Z,11.00
2019-02-22T19:04:19.459Z,11.00
2019-02-22T19:06:50.926Z,10.90
2019-02-22T19:09:21.324Z,10.90
2019-02-22T19:11:51.975Z,11.00
2019-02-22T19:14:23.129Z,11.00
2019-02-22T19:16:56.366Z,10.90
2019-02-22T19:19:27.050Z,10.90
2019-02-22T19:21:57.453Z,10.90
2019-02-22T19:24:28.213Z,10.90
2019-02-22T19:26:59.667Z,10.90
2019-02-22T19:29:30.291Z,10.90
2019-02-22T19:32:01.483Z,10.80
2019-02-22T19:34:52.237Z,10.80
2019-02-22T19:37:23.458Z,10.80
2019-02-22T19:39:53.849Z,10.80
2019-02-22T19:42:24.570Z,10.80
2019-02-22T19:44:54.972Z,10.70
2019-02-22T19:47:25.615Z,10.70
2019-02-22T19:49:56.988Z,10.60
2019-02-22T19:52:28.410Z,10.60
2019-02-22T19:54:59.566Z,10.60
2019-02-22T19:57:30.286Z,10.60
2019-02-22T20:00:01.386Z,10.50
2019-02-22T20:02:31.778Z,10.50
2019-02-22T20:05:02.293Z,10.50
2019-02-22T20:07:32.634Z,10.50
2019-02-22T20:10:04.053Z,10.50
2019-02-22T20:12:34.767Z,10.50
2019-02-22T20:15:05.083Z,10.60
2019-02-22T20:17:35.755Z,10.60
2019-02-22T20:22:52.280Z,10.60
2019-02-22T20:25:23.628Z,10.70
2019-02-22T20:27:54.792Z,10.70
2019-02-22T20:30:25.405Z,10.70
2019-02-22T20:32:56.563Z,10.70
2019-02-22T20:35:29.582Z,10.70
2019-02-22T20:38:07.283Z,10.70
2019-02-22T20:40:37.872Z,10.60
2019-02-22T20:43:08.599Z,10.70
2019-02-22T20:45:39.702Z,10.60
2019-02-22T20:48:10.026Z,10.60
2019-02-22T20:50:40.726Z,10.70
2019-02-22T20:53:11.058Z,10.70
2019-02-22T20:55:41.455Z,10.60
2019-02-22T20:58:11.831Z,10.60
2019-02-22T21:01:14.232Z,10.60
2019-02-22T21:03:35.373Z,10.60
2019-02-22T21:06:06.592Z,10.60
2019-02-22T21:08:36.926Z,10.60
2019-02-22T21:11:07.359Z,10.50
2019-02-22T21:13:38.741Z,10.50
2019-02-22T21:16:09.123Z,10.50
2019-02-22T21:18:39.582Z,10.50
2019-02-22T21:21:10.011Z,10.60
2019-02-22T21:23:40.401Z,10.60
2019-02-22T21:26:10.791Z,10.60
2019-02-22T21:28:42.509Z,10.50
2019-02-22T21:31:13.741Z,10.50
2019-02-22T21:33:44.146Z,10.50
2019-02-22T21:36:14.815Z,10.50
2019-02-22T21:38:45.905Z,10.40
2019-02-22T21:41:16.589Z,10.40
2019-02-22T21:43:46.745Z,10.40
2019-02-22T21:46:21.544Z,10.40
2019-02-22T21:48:52.704Z,10.40
2019-02-22T21:51:23.428Z,10.40
2019-02-22T21:53:54.157Z,10.40
2019-02-22T21:56:25.319Z,10.30
2019-02-22T21:58:55.707Z,10.30
2019-02-22T22:01:26.364Z,10.20
2019-02-22T22:03:56.760Z,10.20
2019-02-22T22:06:27.147Z,10.20
2019-02-22T22:08:57.525Z,10.20
2019-02-22T22:11:27.930Z,10.20
2019-02-22T22:13:58.316Z,10.10
2019-02-22T22:16:28.822Z,10.10
2019-02-22T22:18:59.990Z,10.00
2019-02-22T22:21:30.379Z,10.00
2019-02-22T22:24:00.823Z,10.00
2019-02-22T22:26:31.979Z,10.00
2019-02-22T22:29:02.320Z,10.00
2019-02-22T22:31:33.031Z,10.00
2019-02-22T22:34:03.426Z,10.00
2019-02-22T22:36:34.775Z,10.00
2019-02-22T22:39:05.240Z,10.10
2019-02-22T22:41:35.614Z,10.10
2019-02-22T22:44:06.196Z,10.00
2019-02-22T22:46:37.379Z,10.00
2019-02-22T22:49:07.037Z,10.10
2019-02-22T22:51:40.223Z,10.00
2019-02-22T22:54:11.379Z,10.00
2019-02-22T22:56:42.531Z,10.00
2019-02-22T22:59:13.727Z,10.00
2019-02-22T23:01:44.156Z,10.00
2019-02-22T23:04:14.558Z,10.00
2019-02-22T23:06:47.046Z,10.00
2019-02-22T23:09:17.735Z,10.00
2019-02-22T23:11:48.867Z,10.00
2019-02-22T23:14:20.006Z,10.00
2019-02-22T23:16:50.390Z,10.00
2019-02-22T23:19:40.202Z,9.90
2019-02-22T23:22:10.963Z,9.90
2019-02-22T23:24:42.182Z,9.90
2019-02-22T23:27:12.853Z,9.90
2019-02-22T23:29:44.069Z,9.80
2019-02-22T23:32:14.725Z,9.80
2019-02-22T23:34:45.113Z,9.80
2019-02-22T23:37:15.507Z,9.80
2019-02-22T23:39:45.935Z,9.70
2019-02-22T23:42:18.368Z,9.70
2019-02-22T23:44:49.526Z,9.70
2019-02-22T23:47:20.750Z,9.70
2019-02-22T23:49:51.201Z,9.60
2019-02-22T23:52:21.775Z,9.70
2019-02-22T23:55:11.619Z,9.60
2019-02-22T23:57:42.017Z,9.70
